sensor_id;sensor_type;location;lat;lon;timestamp;P1;durP1;ratioP1;P2;durP2;ratioP2
18455;SDS011;9357;49.900;8.208;2022-07-29T00:01:00;4.50;;;2.00;;
18455;SDS011;9357;49.900;8.208;2022-07-29T00:02:33;3.90;;;2.17;;
18455;SDS011;9357;49.900;8.208;2022-07-29T00:04:06;3.50;;;2.40;;
18455;SDS011;9357;49.900;8.208;2022-07-29T00:05:39;3.50;;;2.20;;
18455;SDS011;9357;49.900;8.208;2022-07-29T00:07:13;3.20;;;2.17;;
18455;SDS011;9357;49.900;8.208;2022-07-29T00:08:46;3.87;;;2.20;;
18455;SDS011;9357;49.900;8.208;2022-07-29T00:10:19;2.57;;;2.00;;
18455;SDS011;9357;49.900;8.208;2022-07-29T00:11:53;3.53;;;1.80;;
18455;SDS011;9357;49.900;8.208;2022-07-29T00:13:28;7.70;;;2.13;;
18455;SDS011;9357;49.900;8.208;2022-07-29T00:15:03;6.83;;;2.00;;
18455;SDS011;9357;49.900;8.208;2022-07-29T00:16:36;4.80;;;2.10;;
18455;SDS011;9357;49.900;8.208;2022-07-29T00:18:09;3.47;;;2.00;;
18455;SDS011;9357;49.900;8.208;2022-07-29T00:19:42;4.73;;;2.10;;
18455;SDS011;9357;49.900;8.208;2022-07-29T00:21:15;3.20;;;1.80;;
18455;SDS011;9357;49.900;8.208;2022-07-29T00:22:48;4.60;;;2.07;;
18455;SDS011;9357;49.900;8.208;2022-07-29T00:24:21;3.30;;;2.00;;
18455;SDS011;9357;49.900;8.208;2022-07-29T00:25:54;3.30;;;1.70;;
18455;SDS011;9357;49.900;8.208;2022-07-29T00:27:28;4.17;;;2.10;;
18455;SDS011;9357;49.900;8.208;2022-07-29T00:29:01;2.73;;;2.00;;
18455;SDS011;9357;49.900;8.208;2022-07-29T00:30:55;4.80;;;1.97;;
18455;SDS011;9357;49.900;8.208;2022-07-29T00:32:27;3.13;;;2.20;;
18455;SDS011;9357;49.900;8.208;2022-07-29T00:34:00;4.63;;;1.87;;
18455;SDS011;9357;49.900;8.208;2022-07-29T00:35:33;5.13;;;2.00;;
18455;SDS011;9357;49.900;8.208;2022-07-29T00:37:14;3.87;;;2.30;;
18455;SDS011;9357;49.900;8.208;2022-07-29T00:38:47;4.70;;;2.13;;
18455;SDS011;9357;49.900;8.208;2022-07-29T00:40:19;3.60;;;1.97;;
18455;SDS011;9357;49.900;8.208;2022-07-29T00:41:53;4.83;;;2.23;;
18455;SDS011;9357;49.900;8.208;2022-07-29T00:43:28;4.67;;;2.03;;
18455;SDS011;9357;49.900;8.208;2022-07-29T00:45:00;4.17;;;2.30;;
18455;SDS011;9357;49.900;8.208;2022-07-29T00:46:33;6.77;;;2.13;;
18455;SDS011;9357;49.900;8.208;2022-07-29T00:48:06;3.67;;;2.20;;
18455;SDS011;9357;49.900;8.208;2022-07-29T00:49:40;4.40;;;1.90;;
18455;SDS011;9357;49.900;8.208;2022-07-29T00:51:12;3.17;;;2.27;;
18455;SDS011;9357;49.900;8.208;2022-07-29T00:52:46;3.97;;;3.03;;
18455;SDS011;9357;49.900;8.208;2022-07-29T00:54:19;6.23;;;3.10;;
18455;SDS011;9357;49.900;8.208;2022-07-29T00:55:52;4.63;;;2.97;;
18455;SDS011;9357;49.900;8.208;2022-07-29T00:57:26;4.20;;;3.10;;
18455;SDS011;9357;49.900;8.208;2022-07-29T00:58:59;5.53;;;2.47;;
18455;SDS011;9357;49.900;8.208;2022-07-29T01:00:32;3.57;;;2.43;;
18455;SDS011;9357;49.900;8.208;2022-07-29T01:02:05;5.77;;;2.53;;
18455;SDS011;9357;49.900;8.208;2022-07-29T01:03:37;4.30;;;2.30;;
18455;SDS011;9357;49.900;8.208;2022-07-29T01:05:10;4.83;;;2.20;;
18455;SDS011;9357;49.900;8.208;2022-07-29T01:06:43;6.97;;;2.57;;
18455;SDS011;9357;49.900;8.208;2022-07-29T01:08:16;5.33;;;2.23;;
18455;SDS011;9357;49.900;8.208;2022-07-29T01:09:50;2.13;;;1.93;;
18455;SDS011;9357;49.900;8.208;2022-07-29T01:11:24;2.73;;;2.30;;
18455;SDS011;9357;49.900;8.208;2022-07-29T01:12:58;5.77;;;2.40;;
18455;SDS011;9357;49.900;8.208;2022-07-29T01:14:40;3.17;;;2.30;;
18455;SDS011;9357;49.900;8.208;2022-07-29T01:16:15;2.70;;;2.17;;
18455;SDS011;9357;49.900;8.208;2022-07-29T01:17:54;2.57;;;2.10;;
18455;SDS011;9357;49.900;8.208;2022-07-29T01:19:42;4.73;;;2.40;;
18455;SDS011;9357;49.900;8.208;2022-07-29T01:21:40;4.93;;;2.43;;
18455;SDS011;9357;49.900;8.208;2022-07-29T01:23:30;5.17;;;2.20;;
18455;SDS011;9357;49.900;8.208;2022-07-29T01:25:19;3.77;;;2.50;;
18455;SDS011;9357;49.900;8.208;2022-07-29T01:27:06;3.03;;;2.50;;
18455;SDS011;9357;49.900;8.208;2022-07-29T01:28:58;6.80;;;2.50;;
18455;SDS011;9357;49.900;8.208;2022-07-29T01:30:38;4.93;;;2.90;;
18455;SDS011;9357;49.900;8.208;2022-07-29T01:32:15;2.80;;;2.30;;
18455;SDS011;9357;49.900;8.208;2022-07-29T01:34:00;4.53;;;2.37;;
18455;SDS011;9357;49.900;8.208;2022-07-29T01:35:35;4.50;;;2.30;;
18455;SDS011;9357;49.900;8.208;2022-07-29T01:37:12;3.10;;;2.10;;
18455;SDS011;9357;49.900;8.208;2022-07-29T01:38:54;3.63;;;2.20;;
18455;SDS011;9357;49.900;8.208;2022-07-29T01:40:33;4.27;;;2.30;;
18455;SDS011;9357;49.900;8.208;2022-07-29T01:42:11;3.50;;;2.30;;
18455;SDS011;9357;49.900;8.208;2022-07-29T01:43:49;2.57;;;2.33;;
18455;SDS011;9357;49.900;8.208;2022-07-29T01:45:26;2.77;;;2.33;;
18455;SDS011;9357;49.900;8.208;2022-07-29T01:47:08;2.37;;;2.20;;
18455;SDS011;9357;49.900;8.208;2022-07-29T01:48:45;4.53;;;2.43;;
18455;SDS011;9357;49.900;8.208;2022-07-29T01:50:20;3.37;;;2.57;;
18455;SDS011;9357;49.900;8.208;2022-07-29T01:52:01;4.43;;;2.50;;
18455;SDS011;9357;49.900;8.208;2022-07-29T01:53:39;4.53;;;2.60;;
18455;SDS011;9357;49.900;8.208;2022-07-29T01:55:17;4.57;;;2.40;;
18455;SDS011;9357;49.900;8.208;2022-07-29T01:56:53;3.30;;;2.40;;
18455;SDS011;9357;49.900;8.208;2022-07-29T01:58:28;3.10;;;2.40;;
18455;SDS011;9357;49.900;8.208;2022-07-29T02:00:03;5.17;;;2.43;;
18455;SDS011;9357;49.900;8.208;2022-07-29T02:01:38;3.67;;;2.40;;
18455;SDS011;9357;49.900;8.208;2022-07-29T02:03:12;4.80;;;2.80;;
18455;SDS011;9357;49.900;8.208;2022-07-29T02:04:47;3.77;;;2.63;;
18455;SDS011;9357;49.900;8.208;2022-07-29T02:06:22;4.50;;;2.87;;
18455;SDS011;9357;49.900;8.208;2022-07-29T02:07:56;3.03;;;2.47;;
18455;SDS011;9357;49.900;8.208;2022-07-29T02:09:31;3.83;;;2.30;;
18455;SDS011;9357;49.900;8.208;2022-07-29T02:11:07;3.73;;;2.53;;
18455;SDS011;9357;49.900;8.208;2022-07-29T02:12:41;5.60;;;2.83;;
18455;SDS011;9357;49.900;8.208;2022-07-29T02:14:21;4.60;;;2.43;;
18455;SDS011;9357;49.900;8.208;2022-07-29T02:15:55;5.33;;;2.57;;
18455;SDS011;9357;49.900;8.208;2022-07-29T02:17:31;3.77;;;2.87;;
18455;SDS011;9357;49.900;8.208;2022-07-29T02:19:11;4.50;;;2.63;;
18455;SDS011;9357;49.900;8.208;2022-07-29T02:20:47;3.70;;;2.77;;
18455;SDS011;9357;49.900;8.208;2022-07-29T02:22:22;4.67;;;2.73;;
18455;SDS011;9357;49.900;8.208;2022-07-29T02:23:57;3.33;;;2.80;;
18455;SDS011;9357;49.900;8.208;2022-07-29T02:25:32;6.80;;;2.50;;
18455;SDS011;9357;49.900;8.208;2022-07-29T02:27:08;5.30;;;2.80;;
18455;SDS011;9357;49.900;8.208;2022-07-29T02:28:42;4.70;;;2.60;;
18455;SDS011;9357;49.900;8.208;2022-07-29T02:30:17;6.80;;;2.63;;
18455;SDS011;9357;49.900;8.208;2022-07-29T02:31:51;3.90;;;2.70;;
18455;SDS011;9357;49.900;8.208;2022-07-29T02:33:26;4.73;;;2.60;;
18455;SDS011;9357;49.900;8.208;2022-07-29T02:35:02;4.10;;;2.53;;
18455;SDS011;9357;49.900;8.208;2022-07-29T02:36:36;3.13;;;2.60;;
18455;SDS011;9357;49.900;8.208;2022-07-29T02:38:12;5.47;;;3.00;;
18455;SDS011;9357;49.900;8.208;2022-07-29T02:40:17;4.43;;;2.90;;
18455;SDS011;9357;49.900;8.208;2022-07-29T02:41:51;4.70;;;2.90;;
18455;SDS011;9357;49.900;8.208;2022-07-29T02:43:27;7.43;;;2.73;;
18455;SDS011;9357;49.900;8.208;2022-07-29T02:45:03;3.67;;;2.73;;
18455;SDS011;9357;49.900;8.208;2022-07-29T02:46:36;5.60;;;2.90;;
18455;SDS011;9357;49.900;8.208;2022-07-29T02:48:13;5.20;;;2.97;;
18455;SDS011;9357;49.900;8.208;2022-07-29T02:49:51;4.47;;;2.90;;
18455;SDS011;9357;49.900;8.208;2022-07-29T02:51:28;5.70;;;2.90;;
18455;SDS011;9357;49.900;8.208;2022-07-29T02:53:16;5.93;;;3.17;;
18455;SDS011;9357;49.900;8.208;2022-07-29T02:54:52;7.40;;;3.10;;
18455;SDS011;9357;49.900;8.208;2022-07-29T02:56:28;4.00;;;2.77;;
18455;SDS011;9357;49.900;8.208;2022-07-29T02:58:07;4.70;;;2.90;;
18455;SDS011;9357;49.900;8.208;2022-07-29T02:59:47;4.47;;;2.80;;
18455;SDS011;9357;49.900;8.208;2022-07-29T03:01:22;4.50;;;3.00;;
18455;SDS011;9357;49.900;8.208;2022-07-29T03:02:59;5.87;;;2.67;;
18455;SDS011;9357;49.900;8.208;2022-07-29T03:04:35;3.03;;;2.70;;
18455;SDS011;9357;49.900;8.208;2022-07-29T03:06:13;4.70;;;3.13;;
18455;SDS011;9357;49.900;8.208;2022-07-29T03:08:09;6.30;;;2.90;;
18455;SDS011;9357;49.900;8.208;2022-07-29T03:09:43;5.80;;;2.73;;
18455;SDS011;9357;49.900;8.208;2022-07-29T03:11:16;8.80;;;3.07;;
18455;SDS011;9357;49.900;8.208;2022-07-29T03:13:09;3.30;;;2.73;;
18455;SDS011;9357;49.900;8.208;2022-07-29T03:14:43;4.67;;;2.73;;
18455;SDS011;9357;49.900;8.208;2022-07-29T03:16:17;6.83;;;2.80;;
18455;SDS011;9357;49.900;8.208;2022-07-29T03:17:51;5.30;;;2.97;;
18455;SDS011;9357;49.900;8.208;2022-07-29T03:19:25;3.97;;;2.60;;
18455;SDS011;9357;49.900;8.208;2022-07-29T03:20:59;9.33;;;2.90;;
18455;SDS011;9357;49.900;8.208;2022-07-29T03:22:33;3.07;;;2.50;;
18455;SDS011;9357;49.900;8.208;2022-07-29T03:24:27;4.20;;;2.63;;
18455;SDS011;9357;49.900;8.208;2022-07-29T03:26:01;3.60;;;2.70;;
18455;SDS011;9357;49.900;8.208;2022-07-29T03:27:34;5.00;;;2.53;;
18455;SDS011;9357;49.900;8.208;2022-07-29T03:29:07;5.83;;;2.70;;
18455;SDS011;9357;49.900;8.208;2022-07-29T03:30:43;6.97;;;2.97;;
18455;SDS011;9357;49.900;8.208;2022-07-29T03:32:16;4.27;;;2.70;;
18455;SDS011;9357;49.900;8.208;2022-07-29T03:33:55;3.90;;;2.60;;
18455;SDS011;9357;49.900;8.208;2022-07-29T03:35:28;4.83;;;2.70;;
18455;SDS011;9357;49.900;8.208;2022-07-29T03:37:02;5.10;;;2.53;;
18455;SDS011;9357;49.900;8.208;2022-07-29T03:38:38;5.03;;;2.73;;
18455;SDS011;9357;49.900;8.208;2022-07-29T03:40:17;3.97;;;2.63;;
18455;SDS011;9357;49.900;8.208;2022-07-29T03:41:56;5.77;;;2.73;;
18455;SDS011;9357;49.900;8.208;2022-07-29T03:43:32;4.20;;;2.40;;
18455;SDS011;9357;49.900;8.208;2022-07-29T03:45:19;5.80;;;2.77;;
18455;SDS011;9357;49.900;8.208;2022-07-29T03:46:54;5.13;;;2.67;;
18455;SDS011;9357;49.900;8.208;2022-07-29T03:48:29;3.83;;;2.90;;
18455;SDS011;9357;49.900;8.208;2022-07-29T03:50:05;4.37;;;2.43;;
18455;SDS011;9357;49.900;8.208;2022-07-29T03:51:41;4.37;;;2.50;;
18455;SDS011;9357;49.900;8.208;2022-07-29T03:53:14;5.33;;;2.73;;
18455;SDS011;9357;49.900;8.208;2022-07-29T03:54:48;3.23;;;2.83;;
18455;SDS011;9357;49.900;8.208;2022-07-29T03:56:21;3.70;;;2.67;;
18455;SDS011;9357;49.900;8.208;2022-07-29T03:57:55;3.60;;;2.97;;
18455;SDS011;9357;49.900;8.208;2022-07-29T03:59:30;5.17;;;2.83;;
18455;SDS011;9357;49.900;8.208;2022-07-29T04:01:04;4.40;;;2.50;;
18455;SDS011;9357;49.900;8.208;2022-07-29T04:02:37;4.50;;;2.60;;
18455;SDS011;9357;49.900;8.208;2022-07-29T04:04:11;5.43;;;2.73;;
18455;SDS011;9357;49.900;8.208;2022-07-29T04:05:44;4.17;;;2.80;;
18455;SDS011;9357;49.900;8.208;2022-07-29T04:07:29;7.47;;;2.63;;
18455;SDS011;9357;49.900;8.208;2022-07-29T04:09:02;5.33;;;2.60;;
18455;SDS011;9357;49.900;8.208;2022-07-29T04:10:36;5.43;;;2.90;;
18455;SDS011;9357;49.900;8.208;2022-07-29T04:12:10;3.20;;;2.43;;
18455;SDS011;9357;49.900;8.208;2022-07-29T04:13:43;3.67;;;2.43;;
18455;SDS011;9357;49.900;8.208;2022-07-29T04:15:15;3.83;;;2.63;;
18455;SDS011;9357;49.900;8.208;2022-07-29T04:16:48;6.13;;;3.17;;
18455;SDS011;9357;49.900;8.208;2022-07-29T04:18:21;3.73;;;2.60;;
18455;SDS011;9357;49.900;8.208;2022-07-29T04:19:54;3.37;;;2.40;;
18455;SDS011;9357;49.900;8.208;2022-07-29T04:21:27;4.50;;;2.40;;
18455;SDS011;9357;49.900;8.208;2022-07-29T04:22:59;6.40;;;2.77;;
18455;SDS011;9357;49.900;8.208;2022-07-29T04:24:32;3.60;;;2.80;;
18455;SDS011;9357;49.900;8.208;2022-07-29T04:26:07;4.23;;;2.80;;
18455;SDS011;9357;49.900;8.208;2022-07-29T04:27:41;7.40;;;2.77;;
18455;SDS011;9357;49.900;8.208;2022-07-29T04:29:27;3.10;;;2.70;;
18455;SDS011;9357;49.900;8.208;2022-07-29T04:31:00;3.73;;;2.87;;
18455;SDS011;9357;49.900;8.208;2022-07-29T04:32:33;5.57;;;2.80;;
18455;SDS011;9357;49.900;8.208;2022-07-29T04:34:06;4.83;;;3.00;;
18455;SDS011;9357;49.900;8.208;2022-07-29T04:35:40;4.50;;;2.93;;
18455;SDS011;9357;49.900;8.208;2022-07-29T04:37:20;7.97;;;3.17;;
18455;SDS011;9357;49.900;8.208;2022-07-29T04:38:53;4.17;;;2.60;;
18455;SDS011;9357;49.900;8.208;2022-07-29T04:40:26;4.23;;;2.70;;
18455;SDS011;9357;49.900;8.208;2022-07-29T04:42:00;5.57;;;2.97;;
18455;SDS011;9357;49.900;8.208;2022-07-29T04:43:33;4.03;;;2.53;;
18455;SDS011;9357;49.900;8.208;2022-07-29T04:45:07;3.70;;;2.83;;
18455;SDS011;9357;49.900;8.208;2022-07-29T04:46:40;3.80;;;2.80;;
18455;SDS011;9357;49.900;8.208;2022-07-29T04:48:13;5.27;;;2.80;;
18455;SDS011;9357;49.900;8.208;2022-07-29T04:49:46;2.70;;;2.50;;
18455;SDS011;9357;49.900;8.208;2022-07-29T04:51:19;4.37;;;2.70;;
18455;SDS011;9357;49.900;8.208;2022-07-29T04:52:51;5.63;;;3.20;;
18455;SDS011;9357;49.900;8.208;2022-07-29T04:54:24;4.20;;;2.77;;
18455;SDS011;9357;49.900;8.208;2022-07-29T04:55:57;4.50;;;2.60;;
18455;SDS011;9357;49.900;8.208;2022-07-29T04:57:31;4.03;;;2.70;;
18455;SDS011;9357;49.900;8.208;2022-07-29T04:59:03;3.27;;;2.73;;
18455;SDS011;9357;49.900;8.208;2022-07-29T05:00:36;5.33;;;2.97;;
18455;SDS011;9357;49.900;8.208;2022-07-29T05:02:09;8.30;;;3.37;;
18455;SDS011;9357;49.900;8.208;2022-07-29T05:03:41;4.17;;;2.77;;
18455;SDS011;9357;49.900;8.208;2022-07-29T05:05:15;4.93;;;2.80;;
18455;SDS011;9357;49.900;8.208;2022-07-29T05:06:47;4.73;;;3.10;;
18455;SDS011;9357;49.900;8.208;2022-07-29T05:08:19;4.17;;;2.70;;
18455;SDS011;9357;49.900;8.208;2022-07-29T05:09:52;2.80;;;2.60;;
18455;SDS011;9357;49.900;8.208;2022-07-29T05:11:24;4.30;;;2.90;;
18455;SDS011;9357;49.900;8.208;2022-07-29T05:13:02;5.43;;;2.70;;
18455;SDS011;9357;49.900;8.208;2022-07-29T05:14:34;4.40;;;2.70;;
18455;SDS011;9357;49.900;8.208;2022-07-29T05:16:07;5.23;;;2.73;;
18455;SDS011;9357;49.900;8.208;2022-07-29T05:17:40;3.77;;;2.63;;
18455;SDS011;9357;49.900;8.208;2022-07-29T05:19:13;6.97;;;2.83;;
18455;SDS011;9357;49.900;8.208;2022-07-29T05:20:45;3.97;;;2.60;;
18455;SDS011;9357;49.900;8.208;2022-07-29T05:22:20;5.77;;;2.70;;
18455;SDS011;9357;49.900;8.208;2022-07-29T05:23:52;4.73;;;3.00;;
18455;SDS011;9357;49.900;8.208;2022-07-29T05:25:25;5.17;;;2.90;;
18455;SDS011;9357;49.900;8.208;2022-07-29T05:27:14;4.33;;;3.10;;
18455;SDS011;9357;49.900;8.208;2022-07-29T05:28:48;5.37;;;3.00;;
18455;SDS011;9357;49.900;8.208;2022-07-29T05:30:21;4.63;;;3.00;;
18455;SDS011;9357;49.900;8.208;2022-07-29T05:31:54;4.73;;;2.97;;
18455;SDS011;9357;49.900;8.208;2022-07-29T05:33:26;4.50;;;3.00;;
18455;SDS011;9357;49.900;8.208;2022-07-29T05:35:06;6.33;;;3.33;;
18455;SDS011;9357;49.900;8.208;2022-07-29T05:36:39;5.67;;;2.63;;
18455;SDS011;9357;49.900;8.208;2022-07-29T05:38:12;5.87;;;2.90;;
18455;SDS011;9357;49.900;8.208;2022-07-29T05:39:45;5.53;;;3.10;;
18455;SDS011;9357;49.900;8.208;2022-07-29T05:41:27;5.00;;;2.93;;
18455;SDS011;9357;49.900;8.208;2022-07-29T05:43:00;7.03;;;3.30;;
18455;SDS011;9357;49.900;8.208;2022-07-29T05:44:36;5.07;;;3.03;;
18455;SDS011;9357;49.900;8.208;2022-07-29T05:46:09;5.53;;;2.90;;
18455;SDS011;9357;49.900;8.208;2022-07-29T05:47:42;5.40;;;3.00;;
18455;SDS011;9357;49.900;8.208;2022-07-29T05:49:15;5.90;;;2.93;;
18455;SDS011;9357;49.900;8.208;2022-07-29T05:50:57;6.10;;;2.87;;
18455;SDS011;9357;49.900;8.208;2022-07-29T05:52:30;6.93;;;2.90;;
18455;SDS011;9357;49.900;8.208;2022-07-29T05:54:03;5.23;;;2.90;;
18455;SDS011;9357;49.900;8.208;2022-07-29T05:55:36;4.77;;;2.77;;
18455;SDS011;9357;49.900;8.208;2022-07-29T05:57:14;5.83;;;2.97;;
18455;SDS011;9357;49.900;8.208;2022-07-29T05:58:47;4.73;;;3.00;;
18455;SDS011;9357;49.900;8.208;2022-07-29T06:00:22;7.03;;;3.20;;
18455;SDS011;9357;49.900;8.208;2022-07-29T06:01:54;4.47;;;2.53;;
18455;SDS011;9357;49.900;8.208;2022-07-29T06:03:28;3.57;;;3.10;;
18455;SDS011;9357;49.900;8.208;2022-07-29T06:05:01;4.90;;;2.90;;
18455;SDS011;9357;49.900;8.208;2022-07-29T06:06:34;5.13;;;2.80;;
18455;SDS011;9357;49.900;8.208;2022-07-29T06:08:07;3.43;;;3.00;;
18455;SDS011;9357;49.900;8.208;2022-07-29T06:09:40;5.00;;;2.80;;
18455;SDS011;9357;49.900;8.208;2022-07-29T06:11:12;4.63;;;3.10;;
18455;SDS011;9357;49.900;8.208;2022-07-29T06:12:45;4.33;;;2.97;;
18455;SDS011;9357;49.900;8.208;2022-07-29T06:14:18;4.47;;;2.80;;
18455;SDS011;9357;49.900;8.208;2022-07-29T06:15:52;2.97;;;2.67;;
18455;SDS011;9357;49.900;8.208;2022-07-29T06:17:25;6.03;;;2.93;;
18455;SDS011;9357;49.900;8.208;2022-07-29T06:18:58;4.77;;;2.70;;
18455;SDS011;9357;49.900;8.208;2022-07-29T06:20:31;6.40;;;2.60;;
18455;SDS011;9357;49.900;8.208;2022-07-29T06:22:04;5.87;;;2.87;;
18455;SDS011;9357;49.900;8.208;2022-07-29T06:23:37;5.37;;;2.97;;
18455;SDS011;9357;49.900;8.208;2022-07-29T06:25:10;4.30;;;2.63;;
18455;SDS011;9357;49.900;8.208;2022-07-29T06:26:43;5.83;;;2.80;;
18455;SDS011;9357;49.900;8.208;2022-07-29T06:28:16;4.33;;;2.90;;
18455;SDS011;9357;49.900;8.208;2022-07-29T06:29:48;5.63;;;2.83;;
18455;SDS011;9357;49.900;8.208;2022-07-29T06:31:22;4.10;;;2.90;;
18455;SDS011;9357;49.900;8.208;2022-07-29T06:32:55;4.27;;;2.90;;
18455;SDS011;9357;49.900;8.208;2022-07-29T06:34:28;8.90;;;3.10;;
18455;SDS011;9357;49.900;8.208;2022-07-29T06:36:03;4.47;;;2.73;;
18455;SDS011;9357;49.900;8.208;2022-07-29T06:37:35;6.00;;;2.90;;
18455;SDS011;9357;49.900;8.208;2022-07-29T06:39:08;4.40;;;2.77;;
18455;SDS011;9357;49.900;8.208;2022-07-29T06:40:42;4.83;;;2.83;;
18455;SDS011;9357;49.900;8.208;2022-07-29T06:42:33;4.37;;;2.90;;
18455;SDS011;9357;49.900;8.208;2022-07-29T06:44:06;7.13;;;3.00;;
18455;SDS011;9357;49.900;8.208;2022-07-29T06:45:39;4.80;;;2.90;;
18455;SDS011;9357;49.900;8.208;2022-07-29T06:47:15;4.37;;;3.10;;
18455;SDS011;9357;49.900;8.208;2022-07-29T06:48:48;6.03;;;2.97;;
18455;SDS011;9357;49.900;8.208;2022-07-29T06:50:21;5.37;;;2.83;;
18455;SDS011;9357;49.900;8.208;2022-07-29T06:51:54;3.37;;;2.93;;
18455;SDS011;9357;49.900;8.208;2022-07-29T06:53:27;8.23;;;2.90;;
18455;SDS011;9357;49.900;8.208;2022-07-29T06:55:00;4.33;;;2.73;;
18455;SDS011;9357;49.900;8.208;2022-07-29T06:56:35;6.57;;;2.90;;
18455;SDS011;9357;49.900;8.208;2022-07-29T06:58:10;5.03;;;2.93;;
18455;SDS011;9357;49.900;8.208;2022-07-29T06:59:42;6.23;;;2.73;;
18455;SDS011;9357;49.900;8.208;2022-07-29T07:01:15;6.00;;;2.80;;
18455;SDS011;9357;49.900;8.208;2022-07-29T07:02:50;6.50;;;2.93;;
18455;SDS011;9357;49.900;8.208;2022-07-29T07:04:23;6.83;;;3.00;;
18455;SDS011;9357;49.900;8.208;2022-07-29T07:05:56;5.63;;;2.90;;
18455;SDS011;9357;49.900;8.208;2022-07-29T07:07:30;5.90;;;2.90;;
18455;SDS011;9357;49.900;8.208;2022-07-29T07:09:03;5.70;;;3.00;;
18455;SDS011;9357;49.900;8.208;2022-07-29T07:10:36;6.10;;;3.13;;
18455;SDS011;9357;49.900;8.208;2022-07-29T07:12:09;4.57;;;2.70;;
18455;SDS011;9357;49.900;8.208;2022-07-29T07:13:43;6.07;;;2.90;;
18455;SDS011;9357;49.900;8.208;2022-07-29T07:15:16;3.67;;;3.00;;
18455;SDS011;9357;49.900;8.208;2022-07-29T07:17:08;4.63;;;2.90;;
18455;SDS011;9357;49.900;8.208;2022-07-29T07:18:42;7.03;;;2.77;;
18455;SDS011;9357;49.900;8.208;2022-07-29T07:20:16;5.50;;;3.20;;
18455;SDS011;9357;49.900;8.208;2022-07-29T07:21:49;5.90;;;3.00;;
18455;SDS011;9357;49.900;8.208;2022-07-29T07:23:22;4.27;;;3.07;;
18455;SDS011;9357;49.900;8.208;2022-07-29T07:24:55;5.00;;;2.97;;
18455;SDS011;9357;49.900;8.208;2022-07-29T07:26:28;4.73;;;2.67;;
18455;SDS011;9357;49.900;8.208;2022-07-29T07:28:01;3.70;;;3.00;;
18455;SDS011;9357;49.900;8.208;2022-07-29T07:29:35;3.40;;;2.77;;
18455;SDS011;9357;49.900;8.208;2022-07-29T07:31:08;6.47;;;2.90;;
18455;SDS011;9357;49.900;8.208;2022-07-29T07:32:41;3.50;;;2.80;;
18455;SDS011;9357;49.900;8.208;2022-07-29T07:34:15;6.33;;;3.07;;
18455;SDS011;9357;49.900;8.208;2022-07-29T07:35:59;8.07;;;3.20;;
18455;SDS011;9357;49.900;8.208;2022-07-29T07:37:32;6.73;;;2.83;;
18455;SDS011;9357;49.900;8.208;2022-07-29T07:39:05;5.13;;;2.77;;
18455;SDS011;9357;49.900;8.208;2022-07-29T07:40:38;4.60;;;3.10;;
18455;SDS011;9357;49.900;8.208;2022-07-29T07:42:11;5.37;;;2.80;;
18455;SDS011;9357;49.900;8.208;2022-07-29T07:43:44;4.97;;;3.03;;
18455;SDS011;9357;49.900;8.208;2022-07-29T07:45:17;6.83;;;2.70;;
18455;SDS011;9357;49.900;8.208;2022-07-29T07:46:50;3.63;;;3.00;;
18455;SDS011;9357;49.900;8.208;2022-07-29T07:48:24;4.33;;;2.60;;
18455;SDS011;9357;49.900;8.208;2022-07-29T07:49:59;4.03;;;3.13;;
18455;SDS011;9357;49.900;8.208;2022-07-29T07:51:32;6.43;;;3.20;;
18455;SDS011;9357;49.900;8.208;2022-07-29T07:53:05;2.97;;;2.77;;
18455;SDS011;9357;49.900;8.208;2022-07-29T07:54:37;3.30;;;2.93;;
18455;SDS011;9357;49.900;8.208;2022-07-29T07:56:10;6.40;;;2.80;;
18455;SDS011;9357;49.900;8.208;2022-07-29T07:57:43;4.33;;;2.90;;
18455;SDS011;9357;49.900;8.208;2022-07-29T07:59:17;3.30;;;2.90;;
18455;SDS011;9357;49.900;8.208;2022-07-29T08:00:50;4.47;;;3.33;;
18455;SDS011;9357;49.900;8.208;2022-07-29T08:02:23;4.73;;;2.80;;
18455;SDS011;9357;49.900;8.208;2022-07-29T08:03:55;7.40;;;3.00;;
18455;SDS011;9357;49.900;8.208;2022-07-29T08:05:30;6.57;;;3.47;;
18455;SDS011;9357;49.900;8.208;2022-07-29T08:07:04;6.00;;;3.50;;
18455;SDS011;9357;49.900;8.208;2022-07-29T08:08:37;9.63;;;3.53;;
18455;SDS011;9357;49.900;8.208;2022-07-29T08:10:10;6.97;;;3.40;;
18455;SDS011;9357;49.900;8.208;2022-07-29T08:11:42;6.83;;;3.20;;
18455;SDS011;9357;49.900;8.208;2022-07-29T08:13:22;6.33;;;3.10;;
18455;SDS011;9357;49.900;8.208;2022-07-29T08:14:59;4.87;;;2.80;;
18455;SDS011;9357;49.900;8.208;2022-07-29T08:16:32;4.37;;;3.00;;
18455;SDS011;9357;49.900;8.208;2022-07-29T08:18:04;6.37;;;3.00;;
18455;SDS011;9357;49.900;8.208;2022-07-29T08:19:39;7.00;;;2.80;;
18455;SDS011;9357;49.900;8.208;2022-07-29T08:21:13;6.07;;;2.90;;
18455;SDS011;9357;49.900;8.208;2022-07-29T08:22:47;4.70;;;2.90;;
18455;SDS011;9357;49.900;8.208;2022-07-29T08:24:20;7.03;;;3.13;;
18455;SDS011;9357;49.900;8.208;2022-07-29T08:26:11;6.23;;;3.50;;
18455;SDS011;9357;49.900;8.208;2022-07-29T08:27:44;3.83;;;2.90;;
18455;SDS011;9357;49.900;8.208;2022-07-29T08:29:17;4.97;;;2.73;;
18455;SDS011;9357;49.900;8.208;2022-07-29T08:30:50;5.93;;;2.60;;
18455;SDS011;9357;49.900;8.208;2022-07-29T08:32:23;3.70;;;3.10;;
18455;SDS011;9357;49.900;8.208;2022-07-29T08:34:15;3.77;;;2.80;;
18455;SDS011;9357;49.900;8.208;2022-07-29T08:35:54;4.47;;;2.60;;
18455;SDS011;9357;49.900;8.208;2022-07-29T08:37:28;5.03;;;2.83;;
18455;SDS011;9357;49.900;8.208;2022-07-29T08:39:02;4.67;;;2.67;;
18455;SDS011;9357;49.900;8.208;2022-07-29T08:40:35;4.43;;;3.10;;
18455;SDS011;9357;49.900;8.208;2022-07-29T08:42:08;4.07;;;3.17;;
18455;SDS011;9357;49.900;8.208;2022-07-29T08:43:42;5.83;;;3.10;;
18455;SDS011;9357;49.900;8.208;2022-07-29T08:45:15;5.07;;;3.07;;
18455;SDS011;9357;49.900;8.208;2022-07-29T08:46:48;5.65;;;3.08;;
18455;SDS011;9357;49.900;8.208;2022-07-29T08:48:22;5.65;;;2.97;;
18455;SDS011;9357;49.900;8.208;2022-07-29T08:49:56;4.85;;;3.03;;
18455;SDS011;9357;49.900;8.208;2022-07-29T08:51:28;6.18;;;3.00;;
18455;SDS011;9357;49.900;8.208;2022-07-29T08:53:21;4.22;;;3.10;;
18455;SDS011;9357;49.900;8.208;2022-07-29T08:54:57;3.30;;;2.95;;
18455;SDS011;9357;49.900;8.208;2022-07-29T08:56:30;4.38;;;3.33;;
18455;SDS011;9357;49.900;8.208;2022-07-29T08:58:05;3.78;;;2.90;;
18455;SDS011;9357;49.900;8.208;2022-07-29T08:59:38;5.78;;;3.10;;
18455;SDS011;9357;49.900;8.208;2022-07-29T09:01:13;5.13;;;2.90;;
18455;SDS011;9357;49.900;8.208;2022-07-29T09:02:50;4.38;;;2.88;;
18455;SDS011;9357;49.900;8.208;2022-07-29T09:04:30;3.25;;;2.95;;
18455;SDS011;9357;49.900;8.208;2022-07-29T09:06:07;5.63;;;3.10;;
18455;SDS011;9357;49.900;8.208;2022-07-29T09:07:40;5.53;;;3.00;;
18455;SDS011;9357;49.900;8.208;2022-07-29T09:09:16;5.35;;;3.08;;
18455;SDS011;9357;49.900;8.208;2022-07-29T09:10:49;5.68;;;2.97;;
18455;SDS011;9357;49.900;8.208;2022-07-29T09:12:22;3.58;;;2.75;;
18455;SDS011;9357;49.900;8.208;2022-07-29T09:13:59;5.78;;;3.28;;
18455;SDS011;9357;49.900;8.208;2022-07-29T09:15:32;3.78;;;2.80;;
18455;SDS011;9357;49.900;8.208;2022-07-29T09:17:06;4.10;;;2.85;;
18455;SDS011;9357;49.900;8.208;2022-07-29T09:18:40;5.53;;;3.22;;
18455;SDS011;9357;49.900;8.208;2022-07-29T09:20:14;3.65;;;2.83;;
18455;SDS011;9357;49.900;8.208;2022-07-29T09:21:48;5.45;;;3.00;;
18455;SDS011;9357;49.900;8.208;2022-07-29T09:23:29;4.35;;;2.90;;
18455;SDS011;9357;49.900;8.208;2022-07-29T09:25:04;7.68;;;3.05;;
18455;SDS011;9357;49.900;8.208;2022-07-29T09:26:38;5.20;;;2.75;;
18455;SDS011;9357;49.900;8.208;2022-07-29T09:28:13;5.32;;;3.10;;
18455;SDS011;9357;49.900;8.208;2022-07-29T09:29:48;5.00;;;3.28;;
18455;SDS011;9357;49.900;8.208;2022-07-29T09:31:32;3.70;;;3.13;;
18455;SDS011;9357;49.900;8.208;2022-07-29T09:33:06;6.18;;;3.10;;
18455;SDS011;9357;49.900;8.208;2022-07-29T09:34:39;4.93;;;3.10;;
18455;SDS011;9357;49.900;8.208;2022-07-29T09:36:12;4.10;;;2.92;;
18455;SDS011;9357;49.900;8.208;2022-07-29T09:37:45;6.38;;;3.40;;
18455;SDS011;9357;49.900;8.208;2022-07-29T09:39:27;4.55;;;2.95;;
18455;SDS011;9357;49.900;8.208;2022-07-29T09:41:03;3.92;;;3.05;;
18455;SDS011;9357;49.900;8.208;2022-07-29T09:42:39;4.35;;;2.95;;